Destiny — QQ001Q — position and weather

sailwx.info

Track history (hours):
 
Tides and Currents Weather Stations Pressure Air Temp Water Temp Dewpoint Dewpoint Depression Visibility Wind Speed Wind Dir Waves Ship Positions

Destiny

Last reported at 2017-Aug-27 02:49 UTC. Time now 2017-Sep-23 04:08 UTC.
Position S 27°38' E 153°25'.
Warning: this ship's position is 27 days out of date.

Length 12 m; draft 1 m.

Type: Pleasure craft. MMSI: 503081900.

Date/timePositionNaut miles runAvg speedWind from/ knotsBaromVisibWave heightAir tempDewpointWater temp
2017-Aug-27 02:49S 27°38' E 153°25'0 0.0
2017-Aug-25 11:25S 27°38' E 153°25'0 0.0
2017-Aug-24 06:40S 27°38' E 153°25'0 0.0
2017-Aug-24 06:25S 27°38' E 153°25'0 0.0
2017-Aug-24 05:58S 27°38' E 153°25'0 0.0
2017-Aug-24 04:52S 27°38' E 153°25'0 0.0
2017-Aug-24 04:22S 27°38' E 153°25'0 0.0
2017-Aug-24 03:58S 27°38' E 153°25'0 0.0
2017-Aug-23 23:19S 27°39' E 153°25'310.7
2017-Aug-23 23:00S 27°42' E 153°24'2 4.1
2017-Aug-23 22:29S 27°44' E 153°23'0 0.0
2017-Aug-23 21:59S 27°44' E 153°23'0 0.0
2017-Aug-23 21:29S 27°44' E 153°23'0 0.0
2017-Aug-23 20:59S 27°44' E 153°23'0 0.0
2017-Aug-23 20:29S 27°44' E 153°23'0 0.0
2017-Aug-23 19:59S 27°44' E 153°23'0 0.0
2017-Aug-23 19:29S 27°44' E 153°23'0 0.0
2017-Aug-23 18:59S 27°44' E 153°23'0 0.0
2017-Aug-23 18:29S 27°44' E 153°23'0 0.0
2017-Aug-23 17:59S 27°44' E 153°23'0 0.0
2017-Aug-23 17:29S 27°44' E 153°23'0 0.0
2017-Aug-23 16:59S 27°44' E 153°23'0 0.0
2017-Aug-23 16:29S 27°44' E 153°23'0 0.0
2017-Aug-23 15:59S 27°44' E 153°23'0 0.0
2017-Aug-23 15:26S 27°44' E 153°23'0 0.0
2017-Aug-23 14:59S 27°44' E 153°23'0 0.0
2017-Aug-23 14:29S 27°44' E 153°23'0 0.0
2017-Aug-23 13:29S 27°44' E 153°23'0 0.0
2017-Aug-23 12:59S 27°44' E 153°23'0 0.0
2017-Aug-23 12:29S 27°44' E 153°23'0 0.0
2017-Aug-23 11:59S 27°44' E 153°23'0 0.0
2017-Aug-23 11:29S 27°44' E 153°23'0 0.0
2017-Aug-23 10:59S 27°44' E 153°23'0 0.0
2017-Aug-23 10:29S 27°44' E 153°23'0 0.0
2017-Aug-23 09:59S 27°44' E 153°23'0 0.0
2017-Aug-23 09:29S 27°44' E 153°23'0 0.0
2017-Aug-23 08:59S 27°44' E 153°23'0 0.0
2017-Aug-23 08:29S 27°44' E 153°23'0 0.0
2017-Aug-23 07:59S 27°44' E 153°23'0 0.0
2017-Aug-23 07:29S 27°44' E 153°23'0 0.0
2017-Aug-23 06:56S 27°44' E 153°23'0 0.0
2017-Aug-23 06:29S 27°44' E 153°23'0 0.0
2017-Aug-23 05:59S 27°44' E 153°23'0 0.0
2017-Aug-23 05:29S 27°44' E 153°23'0 0.0
2017-Aug-23 04:59S 27°44' E 153°23'0 0.0
2017-Aug-23 04:29S 27°44' E 153°23'0 0.0
2017-Aug-23 03:59S 27°44' E 153°23'0 0.0
2017-Aug-23 03:29S 27°44' E 153°23'0 0.0
2017-Aug-23 02:59S 27°44' E 153°23'0 0.0
2017-Aug-23 02:29S 27°44' E 153°23'3 4.9
2017-Aug-23 01:58S 27°46' E 153°25'0 0.0
2017-Aug-23 01:28S 27°46' E 153°25'0 0.0
2017-Aug-23 00:58S 27°46' E 153°25'2 4.5
2017-Aug-23 00:30S 27°44' E 153°24'5 9.8
2017-Aug-23 00:00S 27°39' E 153°24'1 0.1
2017-Aug-22 18:07S 27°38' E 153°25'0 0.0
2017-Aug-22 15:46S 27°38' E 153°25'0 0.0
2017-Aug-22 14:52S 27°38' E 153°25'0 0.0
2017-Aug-22 05:31S 27°38' E 153°25'0 0.0
2017-Aug-22 05:16S 27°38' E 153°25'0 0.0
2017-Aug-22 04:58S 27°38' E 153°25'0 0.0
2017-Aug-22 04:28S 27°38' E 153°25'0 0.0
2017-Aug-22 03:58S 27°38' E 153°25'0 0.0
2017-Aug-22 03:22S 27°38' E 153°25'0 0.0
2017-Aug-22 02:55S 27°38' E 153°25'0 0.0
2017-Aug-22 02:28S 27°38' E 153°25'0 0.0
2017-Aug-21 22:10S 27°38' E 153°25'0 0.0
2017-Aug-21 21:43S 27°38' E 153°25'0 0.0
2017-Aug-21 21:22S 27°38' E 153°25'0 0.0
2017-Aug-21 14:04S 27°38' E 153°25'0 0.0
2017-Aug-21 13:55S 27°38' E 153°25'0 0.0
2017-Aug-21 13:28S 27°38' E 153°25'0 0.0
2017-Aug-21 10:28S 27°38' E 153°25'0 0.0
2017-Aug-21 07:31S 27°38' E 153°25'0 0.1
2017-Aug-21 07:28S 27°38' E 153°25'0 0.0
2017-Aug-21 06:58S 27°38' E 153°25'0 0.0
2017-Aug-21 04:46S 27°38' E 153°25'0 0.0
2017-Aug-21 04:07S 27°38' E 153°25'0 0.0
2017-Aug-21 03:10S 27°38' E 153°25'0 0.0
2017-Aug-20 09:19S 27°38' E 153°25'0 0.0
2017-Aug-20 08:52S 27°38' E 153°25'0 0.0
2017-Aug-20 08:25S 27°38' E 153°25'0 0.0
2017-Aug-20 07:43S 27°38' E 153°25'0 0.0
2017-Aug-20 07:25S 27°38' E 153°25'0 0.0
2017-Aug-20 06:43S 27°38' E 153°25'0 0.0
2017-Aug-20 06:25S 27°38' E 153°25'0 0.0
2017-Aug-20 05:58S 27°38' E 153°25'0 0.0
2017-Aug-20 05:22S 27°38' E 153°25'0 0.0
2017-Aug-20 04:55S 27°38' E 153°25'0 0.0
2017-Aug-20 04:22S 27°38' E 153°25'0 0.0
2017-Aug-20 02:07S 27°38' E 153°25'0 0.0
2017-Aug-20 01:58S 27°38' E 153°25'0 0.0
2017-Aug-20 00:37S 27°38' E 153°25'0 0.0
2017-Aug-20 00:13S 27°38' E 153°25'0 0.0
2017-Aug-19 23:43S 27°38' E 153°25'0 0.0
2017-Aug-19 23:22S 27°38' E 153°25'0 0.0
2017-Aug-19 22:58S 27°38' E 153°25'0 0.0
2017-Aug-19 21:49S 27°38' E 153°25'0 0.0
2017-Aug-19 21:28S 27°38' E 153°25'0 0.0
2017-Aug-19 04:34S 27°38' E 153°25'0 0.0
2017-Aug-19 04:28S 27°38' E 153°25'0 0.0
2017-Aug-19 03:58S 27°38' E 153°25'0 0.0
2017-Aug-19 03:28S 27°38' E 153°25'0 0.0
2017-Aug-19 02:52S 27°38' E 153°25'0 0.0
2017-Aug-18 20:39S 27°38' E 153°25'0 0.0
2017-Aug-18 17:30S 27°38' E 153°25'0 0.0
2017-Aug-18 16:57S 27°38' E 153°25'0 0.0
2017-Aug-18 16:30S 27°38' E 153°25'0 0.0
2017-Aug-18 14:03S 27°38' E 153°25'0 0.0
2017-Aug-18 09:54S 27°38' E 153°25'0 0.0
2017-Aug-18 09:30S 27°38' E 153°25'0 0.0
2017-Aug-18 09:00S 27°38' E 153°25'0 0.0
2017-Aug-18 08:24S 27°38' E 153°25'0 0.0
2017-Aug-18 08:00S 27°38' E 153°25'0 0.0
2017-Aug-18 06:54S 27°38' E 153°25'0 0.0
2017-Aug-18 06:24S 27°38' E 153°25'0 0.0
2017-Aug-18 06:00S 27°38' E 153°25'0 0.0
2017-Aug-18 05:12S 27°38' E 153°25'0 0.0
2017-Aug-18 04:57S 27°38' E 153°25'0 0.0
2017-Aug-18 04:27S 27°38' E 153°25'0 0.0
2017-Aug-18 03:57S 27°38' E 153°25'0 0.0
2017-Aug-18 03:30S 27°38' E 153°25'0 0.0
2017-Aug-18 03:00S 27°38' E 153°25'0 0.0
2017-Aug-18 02:30S 27°38' E 153°25'0 0.0
2017-Aug-18 02:00S 27°38' E 153°25'0 0.0
2017-Aug-18 01:30S 27°38' E 153°25'0 0.0
2017-Aug-18 00:36S 27°38' E 153°25'0 0.0
2017-Aug-18 00:30S 27°38' E 153°25'0 0.0
2017-Aug-17 23:57S 27°38' E 153°25'0 0.0
2017-Aug-17 23:15S 27°38' E 153°25'0 0.0
2017-Aug-17 23:00S 27°38' E 153°25'0 0.0
2017-Aug-17 22:30S 27°38' E 153°25'0 0.0
2017-Aug-17 18:12S 27°38' E 153°25'0 0.0
2017-Aug-17 18:00S 27°38' E 153°25'0 0.0
2017-Aug-17 17:18S 27°38' E 153°25'0 0.0
2017-Aug-17 16:54S 27°38' E 153°25'0 0.0
2017-Aug-17 16:30S 27°38' E 153°25'0 0.0
2017-Aug-17 15:57S 27°38' E 153°25'0 0.0
2017-Aug-17 11:57S 27°38' E 153°25'0 0.0
2017-Aug-17 11:21S 27°38' E 153°25'0 0.0
2017-Aug-17 11:00S 27°38' E 153°25'0 0.0
2017-Aug-17 10:30S 27°38' E 153°25'0 0.0
2017-Aug-17 05:45S 27°38' E 153°25'0 0.0
2017-Aug-17 05:18S 27°38' E 153°25'0 0.0
2017-Aug-17 05:00S 27°38' E 153°25'0 0.1
2017-Aug-17 03:25S 27°38' E 153°25'3 8.0
2017-Aug-17 03:00S 27°40' E 153°22'  
Track history (hours):
 
Tides and Currents Weather Stations Pressure Air Temp Water Temp Dewpoint Dewpoint Depression Visibility Wind Speed Wind Dir Waves Ship Positions

Destiny

Last reported at 2017-Aug-27 02:49 UTC. Time now 2017-Sep-23 04:08 UTC.
Position S 27°38' E 153°25'.
Warning: this ship's position is 27 days out of date.

Length 12 m; draft 1 m.

Type: Pleasure craft. MMSI: 503081900.

Date/timePositionNaut miles runAvg speedWind from/ knotsBaromVisibWave heightAir tempDewpointWater temp
2017-Aug-27 02:49S 27°38' E 153°25'0 0.0
2017-Aug-25 11:25S 27°38' E 153°25'0 0.0
2017-Aug-24 06:40S 27°38' E 153°25'0 0.0
2017-Aug-24 06:25S 27°38' E 153°25'0 0.0
2017-Aug-24 05:58S 27°38' E 153°25'0 0.0
2017-Aug-24 04:52S 27°38' E 153°25'0 0.0
2017-Aug-24 04:22S 27°38' E 153°25'0 0.0
2017-Aug-24 03:58S 27°38' E 153°25'0 0.0
2017-Aug-23 23:19S 27°39' E 153°25'310.7
2017-Aug-23 23:00S 27°42' E 153°24'2 4.1
2017-Aug-23 22:29S 27°44' E 153°23'0 0.0
2017-Aug-23 21:59S 27°44' E 153°23'0 0.0
2017-Aug-23 21:29S 27°44' E 153°23'0 0.0
2017-Aug-23 20:59S 27°44' E 153°23'0 0.0
2017-Aug-23 20:29S 27°44' E 153°23'0 0.0
2017-Aug-23 19:59S 27°44' E 153°23'0 0.0
2017-Aug-23 19:29S 27°44' E 153°23'0 0.0
2017-Aug-23 18:59S 27°44' E 153°23'0 0.0
2017-Aug-23 18:29S 27°44' E 153°23'0 0.0
2017-Aug-23 17:59S 27°44' E 153°23'0 0.0
2017-Aug-23 17:29S 27°44' E 153°23'0 0.0
2017-Aug-23 16:59S 27°44' E 153°23'0 0.0
2017-Aug-23 16:29S 27°44' E 153°23'0 0.0
2017-Aug-23 15:59S 27°44' E 153°23'0 0.0
2017-Aug-23 15:26S 27°44' E 153°23'0 0.0
2017-Aug-23 14:59S 27°44' E 153°23'0 0.0
2017-Aug-23 14:29S 27°44' E 153°23'0 0.0
2017-Aug-23 13:29S 27°44' E 153°23'0 0.0
2017-Aug-23 12:59S 27°44' E 153°23'0 0.0
2017-Aug-23 12:29S 27°44' E 153°23'0 0.0
2017-Aug-23 11:59S 27°44' E 153°23'0 0.0
2017-Aug-23 11:29S 27°44' E 153°23'0 0.0
2017-Aug-23 10:59S 27°44' E 153°23'0 0.0
2017-Aug-23 10:29S 27°44' E 153°23'0 0.0
2017-Aug-23 09:59S 27°44' E 153°23'0 0.0
2017-Aug-23 09:29S 27°44' E 153°23'0 0.0
2017-Aug-23 08:59S 27°44' E 153°23'0 0.0
2017-Aug-23 08:29S 27°44' E 153°23'0 0.0
2017-Aug-23 07:59S 27°44' E 153°23'0 0.0
2017-Aug-23 07:29S 27°44' E 153°23'0 0.0
2017-Aug-23 06:56S 27°44' E 153°23'0 0.0
2017-Aug-23 06:29S 27°44' E 153°23'0 0.0
2017-Aug-23 05:59S 27°44' E 153°23'0 0.0
2017-Aug-23 05:29S 27°44' E 153°23'0 0.0
2017-Aug-23 04:59S 27°44' E 153°23'0 0.0
2017-Aug-23 04:29S 27°44' E 153°23'0 0.0
2017-Aug-23 03:59S 27°44' E 153°23'0 0.0
2017-Aug-23 03:29S 27°44' E 153°23'0 0.0
2017-Aug-23 02:59S 27°44' E 153°23'0 0.0
2017-Aug-23 02:29S 27°44' E 153°23'3 4.9
2017-Aug-23 01:58S 27°46' E 153°25'0 0.0
2017-Aug-23 01:28S 27°46' E 153°25'0 0.0
2017-Aug-23 00:58S 27°46' E 153°25'2 4.5
2017-Aug-23 00:30S 27°44' E 153°24'5 9.8
2017-Aug-23 00:00S 27°39' E 153°24'1 0.1
2017-Aug-22 18:07S 27°38' E 153°25'0 0.0
2017-Aug-22 15:46S 27°38' E 153°25'0 0.0
2017-Aug-22 14:52S 27°38' E 153°25'0 0.0
2017-Aug-22 05:31S 27°38' E 153°25'0 0.0
2017-Aug-22 05:16S 27°38' E 153°25'0 0.0
2017-Aug-22 04:58S 27°38' E 153°25'0 0.0
2017-Aug-22 04:28S 27°38' E 153°25'0 0.0
2017-Aug-22 03:58S 27°38' E 153°25'0 0.0
2017-Aug-22 03:22S 27°38' E 153°25'0 0.0
2017-Aug-22 02:55S 27°38' E 153°25'0 0.0
2017-Aug-22 02:28S 27°38' E 153°25'0 0.0
2017-Aug-21 22:10S 27°38' E 153°25'0 0.0
2017-Aug-21 21:43S 27°38' E 153°25'0 0.0
2017-Aug-21 21:22S 27°38' E 153°25'0 0.0
2017-Aug-21 14:04S 27°38' E 153°25'0 0.0
2017-Aug-21 13:55S 27°38' E 153°25'0 0.0
2017-Aug-21 13:28S 27°38' E 153°25'0 0.0
2017-Aug-21 10:28S 27°38' E 153°25'0 0.0
2017-Aug-21 07:31S 27°38' E 153°25'0 0.1
2017-Aug-21 07:28S 27°38' E 153°25'0 0.0
2017-Aug-21 06:58S 27°38' E 153°25'0 0.0
2017-Aug-21 04:46S 27°38' E 153°25'0 0.0
2017-Aug-21 04:07S 27°38' E 153°25'0 0.0
2017-Aug-21 03:10S 27°38' E 153°25'0 0.0
2017-Aug-20 09:19S 27°38' E 153°25'0 0.0
2017-Aug-20 08:52S 27°38' E 153°25'0 0.0
2017-Aug-20 08:25S 27°38' E 153°25'0 0.0
2017-Aug-20 07:43S 27°38' E 153°25'0 0.0
2017-Aug-20 07:25S 27°38' E 153°25'0 0.0
2017-Aug-20 06:43S 27°38' E 153°25'0 0.0
2017-Aug-20 06:25S 27°38' E 153°25'0 0.0
2017-Aug-20 05:58S 27°38' E 153°25'0 0.0
2017-Aug-20 05:22S 27°38' E 153°25'0 0.0
2017-Aug-20 04:55S 27°38' E 153°25'0 0.0
2017-Aug-20 04:22S 27°38' E 153°25'0 0.0
2017-Aug-20 02:07S 27°38' E 153°25'0 0.0
2017-Aug-20 01:58S 27°38' E 153°25'0 0.0
2017-Aug-20 00:37S 27°38' E 153°25'0 0.0
2017-Aug-20 00:13S 27°38' E 153°25'0 0.0
2017-Aug-19 23:43S 27°38' E 153°25'0 0.0
2017-Aug-19 23:22S 27°38' E 153°25'0 0.0
2017-Aug-19 22:58S 27°38' E 153°25'0 0.0
2017-Aug-19 21:49S 27°38' E 153°25'0 0.0
2017-Aug-19 21:28S 27°38' E 153°25'0 0.0
2017-Aug-19 04:34S 27°38' E 153°25'0 0.0
2017-Aug-19 04:28S 27°38' E 153°25'0 0.0
2017-Aug-19 03:58S 27°38' E 153°25'0 0.0
2017-Aug-19 03:28S 27°38' E 153°25'0 0.0
2017-Aug-19 02:52S 27°38' E 153°25'0 0.0
2017-Aug-18 20:39S 27°38' E 153°25'0 0.0
2017-Aug-18 17:30S 27°38' E 153°25'0 0.0
2017-Aug-18 16:57S 27°38' E 153°25'0 0.0
2017-Aug-18 16:30S 27°38' E 153°25'0 0.0
2017-Aug-18 14:03S 27°38' E 153°25'0 0.0
2017-Aug-18 09:54S 27°38' E 153°25'0 0.0
2017-Aug-18 09:30S 27°38' E 153°25'0 0.0
2017-Aug-18 09:00S 27°38' E 153°25'0 0.0
2017-Aug-18 08:24S 27°38' E 153°25'0 0.0
2017-Aug-18 08:00S 27°38' E 153°25'0 0.0
2017-Aug-18 06:54S 27°38' E 153°25'0 0.0
2017-Aug-18 06:24S 27°38' E 153°25'0 0.0
2017-Aug-18 06:00S 27°38' E 153°25'0 0.0
2017-Aug-18 05:12S 27°38' E 153°25'0 0.0
2017-Aug-18 04:57S 27°38' E 153°25'0 0.0
2017-Aug-18 04:27S 27°38' E 153°25'0 0.0
2017-Aug-18 03:57S 27°38' E 153°25'0 0.0
2017-Aug-18 03:30S 27°38' E 153°25'0 0.0
2017-Aug-18 03:00S 27°38' E 153°25'0 0.0
2017-Aug-18 02:30S 27°38' E 153°25'0 0.0
2017-Aug-18 02:00S 27°38' E 153°25'0 0.0
2017-Aug-18 01:30S 27°38' E 153°25'0 0.0
2017-Aug-18 00:36S 27°38' E 153°25'0 0.0
2017-Aug-18 00:30S 27°38' E 153°25'0 0.0
2017-Aug-17 23:57S 27°38' E 153°25'0 0.0
2017-Aug-17 23:15S 27°38' E 153°25'0 0.0
2017-Aug-17 23:00S 27°38' E 153°25'0 0.0
2017-Aug-17 22:30S 27°38' E 153°25'0 0.0
2017-Aug-17 18:12S 27°38' E 153°25'0 0.0
2017-Aug-17 18:00S 27°38' E 153°25'0 0.0
2017-Aug-17 17:18S 27°38' E 153°25'0 0.0
2017-Aug-17 16:54S 27°38' E 153°25'0 0.0
2017-Aug-17 16:30S 27°38' E 153°25'0 0.0
2017-Aug-17 15:57S 27°38' E 153°25'0 0.0
2017-Aug-17 11:57S 27°38' E 153°25'0 0.0
2017-Aug-17 11:21S 27°38' E 153°25'0 0.0
2017-Aug-17 11:00S 27°38' E 153°25'0 0.0
2017-Aug-17 10:30S 27°38' E 153°25'0 0.0
2017-Aug-17 05:45S 27°38' E 153°25'0 0.0
2017-Aug-17 05:18S 27°38' E 153°25'0 0.0
2017-Aug-17 05:00S 27°38' E 153°25'0 0.1
2017-Aug-17 03:25S 27°38' E 153°25'3 8.0
2017-Aug-17 03:00S 27°40' E 153°22'  

Dump ship's entire track history